Time;durP1;ratioP1;P1;durP2;ratioP2;P2;SDS_P1;SDS_P2;PMS_P1;PMS_P2;Temp;Humidity;BMP_temperature;BMP_pressure;BME280_temperature;BME280_humidity;BME280_pressure;Samples;Min_cycle;Max_cycle;Signal;HPM_P1;HPM_P2
2023/10/22 00:01:18;;;;;;;;;;;20.40;55.70;;;;;;5012873;28;87180;-45
2023/10/22 00:03:43;;;;;;;;;;;20.40;55.80;;;;;;5012779;28;87322;-42
2023/10/22 00:06:09;;;;;;;;;;;20.40;55.70;;;;;;5017583;28;87396;-42
2023/10/22 00:08:34;;;;;;;;;;;20.40;55.70;;;;;;5011520;28;86995;-43
2023/10/22 00:11:00;;;;;;;;;;;20.40;55.70;;;;;;5011124;28;89558;-43
2023/10/22 00:13:25;;;;;;;;;;;20.40;55.80;;;;;;5013940;28;88158;-43
2023/10/22 00:15:51;;;;;;;;;;;20.40;55.90;;;;;;5013053;28;88362;-42
2023/10/22 00:18:16;;;;;;;;;;;20.30;55.80;;;;;;5012239;28;88356;-43
2023/10/22 00:20:42;;;;;;;;;;;20.30;55.80;;;;;;5012616;28;87176;-42
2023/10/22 00:23:07;;;;;;;;;;;20.40;55.90;;;;;;5014159;28;87630;-43
2023/10/22 00:25:36;;;;;;;;;;;20.30;55.90;;;;;;5011285;28;88136;-44
2023/10/22 00:28:02;;;;;;;;;;;20.30;55.90;;;;;;5014348;28;87194;-43
2023/10/22 00:30:28;;;;;;;;;;;20.30;55.90;;;;;;5013189;28;87402;-43
2023/10/22 00:32:53;;;;;;;;;;;20.30;55.90;;;;;;5013016;28;87374;-45
2023/10/22 00:35:19;;;;;;;;;;;20.30;55.90;;;;;;5013015;28;87475;-42
2023/10/22 00:37:44;;;;;;;;;;;20.30;56.60;;;;;;5011158;28;89243;-46
2023/10/22 00:40:10;;;;;;;;;;;20.30;56.00;;;;;;5014156;28;87114;-42
2023/10/22 00:42:35;;;;;;;;;;;20.30;56.00;;;;;;5011063;28;87754;-44
2023/10/22 00:45:02;;;;;;;;;;;20.30;56.00;;;;;;5015410;28;89681;-43
2023/10/22 00:47:29;;;;;;;;;;;20.30;56.00;;;;;;5011668;28;87164;-43
2023/10/22 00:49:54;;;;;;;;;;;20.30;56.00;;;;;;5015205;28;88162;-45
2023/10/22 00:52:20;;;;;;;;;;;20.30;56.00;;;;;;5012675;28;87122;-41
2023/10/22 00:54:46;;;;;;;;;;;20.30;56.00;;;;;;5012230;28;87646;-43
2023/10/22 00:57:13;;;;;;;;;;;20.30;56.00;;;;;;5013927;28;89141;-43
2023/10/22 00:59:39;;;;;;;;;;;20.30;56.00;;;;;;5010734;28;87472;-43
2023/10/22 01:02:05;;;;;;;;;;;20.20;56.00;;;;;;5013180;28;87977;-43
2023/10/22 01:04:31;;;;;;;;;;;20.20;56.70;;;;;;5012465;28;89508;-44
2023/10/22 01:06:56;;;;;;;;;;;20.20;56.10;;;;;;5012459;28;87008;-42
2023/10/22 01:09:22;;;;;;;;;;;20.20;56.10;;;;;;5011989;28;87096;-42
2023/10/22 01:12:14;;;;;;;;;;;20.20;56.10;;;;;;5015771;28;89263;-42
2023/10/22 01:14:39;;;;;;;;;;;20.20;56.10;;;;;;5010595;28;87445;-43
2023/10/22 01:17:05;;;;;;;;;;;20.20;56.10;;;;;;5009493;28;87314;-44
2023/10/22 01:19:30;;;;;;;;;;;20.20;56.10;;;;;;5014564;28;86436;-47
2023/10/22 01:21:57;;;;;;;;;;;20.20;56.20;;;;;;5018542;28;90292;-44
2023/10/22 01:24:22;;;;;;;;;;;20.20;56.20;;;;;;5012088;28;89345;-45
2023/10/22 01:26:48;;;;;;;;;;;20.20;56.20;;;;;;5011685;28;88084;-44
2023/10/22 01:29:14;;;;;;;;;;;20.20;56.30;;;;;;5010744;28;88426;-43
2023/10/22 01:31:39;;;;;;;;;;;20.20;56.30;;;;;;5011904;28;89199;-42
2023/10/22 01:34:05;;;;;;;;;;;20.20;56.30;;;;;;5016699;28;87001;-43
2023/10/22 01:36:30;;;;;;;;;;;20.20;56.30;;;;;;5010211;28;88875;-43
2023/10/22 01:38:57;;;;;;;;;;;20.20;56.30;;;;;;5013169;28;87170;-42
2023/10/22 01:41:23;;;;;;;;;;;20.20;56.30;;;;;;5011000;28;88713;-44
2023/10/22 01:43:48;;;;;;;;;;;20.20;56.30;;;;;;5011925;28;87551;-43
2023/10/22 01:46:14;;;;;;;;;;;20.20;56.30;;;;;;5011152;28;87156;-45
2023/10/22 01:48:40;;;;;;;;;;;20.20;56.30;;;;;;5013180;28;87192;-43
2023/10/22 01:51:05;;;;;;;;;;;20.20;56.40;;;;;;5008910;28;88221;-44
2023/10/22 01:53:31;;;;;;;;;;;20.20;56.30;;;;;;5013349;28;87520;-43
2023/10/22 01:55:57;;;;;;;;;;;20.10;56.30;;;;;;5012780;28;87999;-43
2023/10/22 01:58:22;;;;;;;;;;;20.20;56.40;;;;;;5011197;28;87122;-45
2023/10/22 02:00:48;;;;;;;;;;;20.10;56.40;;;;;;5011798;28;87560;-43
2023/10/22 02:03:14;;;;;;;;;;;20.10;56.30;;;;;;5012198;28;89589;-42
2023/10/22 02:05:39;;;;;;;;;;;20.10;56.40;;;;;;5010642;28;87080;-44
2023/10/22 02:08:06;;;;;;;;;;;20.10;56.40;;;;;;5013645;28;88699;-44
2023/10/22 02:10:32;;;;;;;;;;;20.10;56.40;;;;;;5009554;28;88006;-45
2023/10/22 02:12:57;;;;;;;;;;;20.10;56.40;;;;;;5012760;28;87028;-45
2023/10/22 02:15:25;;;;;;;;;;;20.10;56.40;;;;;;5012925;28;88316;-44
2023/10/22 02:20:35;;;;;;;;;;;20.10;56.40;;;;;;5011018;28;86984;-44
2023/10/22 02:23:01;;;;;;;;;;;20.10;56.50;;;;;;5011409;28;88062;-43
2023/10/22 02:25:27;;;;;;;;;;;20.10;56.40;;;;;;5011826;28;87164;-43
2023/10/22 02:27:53;;;;;;;;;;;20.10;57.00;;;;;;5010542;28;87635;-43
2023/10/22 02:30:19;;;;;;;;;;;20.10;56.50;;;;;;5012392;28;88072;-43
2023/10/22 02:32:44;;;;;;;;;;;20.10;56.50;;;;;;5012628;28;86398;-45
2023/10/22 02:35:10;;;;;;;;;;;20.10;56.50;;;;;;5010363;28;87104;-42
2023/10/22 02:37:36;;;;;;;;;;;20.10;56.50;;;;;;5014292;28;89868;-43
2023/10/22 02:40:03;;;;;;;;;;;20.10;56.50;;;;;;5010687;28;88017;-43
2023/10/22 02:42:29;;;;;;;;;;;20.10;56.60;;;;;;5013285;28;89371;-43
2023/10/22 02:44:54;;;;;;;;;;;20.00;56.50;;;;;;5015304;28;87084;-43
2023/10/22 02:47:20;;;;;;;;;;;20.10;56.50;;;;;;5012255;28;87500;-46
2023/10/22 02:49:46;;;;;;;;;;;20.00;56.50;;;;;;5015924;28;87790;-43
2023/10/22 02:52:12;;;;;;;;;;;20.00;56.50;;;;;;5013106;28;87228;-43
2023/10/22 02:54:37;;;;;;;;;;;20.00;56.50;;;;;;5015126;28;87375;-44
2023/10/22 02:57:03;;;;;;;;;;;20.00;56.50;;;;;;5014797;28;87762;-43
2023/10/22 02:59:28;;;;;;;;;;;20.00;56.50;;;;;;5016412;28;87221;-43
2023/10/22 03:01:54;;;;;;;;;;;20.00;56.60;;;;;;5015298;28;88050;-42
2023/10/22 03:04:20;;;;;;;;;;;20.00;56.60;;;;;;5011645;28;87970;-43
2023/10/22 03:06:45;;;;;;;;;;;20.00;56.60;;;;;;5012845;28;88340;-43
2023/10/22 03:09:13;;;;;;;;;;;20.00;56.60;;;;;;5015241;28;87357;-43
2023/10/22 03:11:38;;;;;;;;;;;20.00;56.60;;;;;;5013682;28;87151;-44
2023/10/22 03:14:05;;;;;;;;;;;20.00;56.60;;;;;;5013988;28;87516;-42
2023/10/22 03:16:30;;;;;;;;;;;20.00;56.60;;;;;;5014500;28;88183;-42
2023/10/22 03:18:56;;;;;;;;;;;20.00;56.60;;;;;;5012987;28;87182;-42
2023/10/22 03:21:24;;;;;;;;;;;20.00;56.60;;;;;;5018567;28;88840;-43
2023/10/22 03:23:49;;;;;;;;;;;19.90;56.60;;;;;;5012674;28;87147;-42
2023/10/22 03:26:18;;;;;;;;;;;19.90;56.60;;;;;;5014602;28;87332;-43
2023/10/22 03:28:45;;;;;;;;;;;20.00;56.70;;;;;;5013139;28;88973;-42
2023/10/22 03:31:10;;;;;;;;;;;19.90;56.60;;;;;;5013075;28;87084;-42
2023/10/22 03:33:36;;;;;;;;;;;19.90;56.60;;;;;;5015161;28;87445;-42
2023/10/22 03:36:03;;;;;;;;;;;19.90;56.70;;;;;;5011570;28;88290;-42
2023/10/22 03:38:29;;;;;;;;;;;19.90;56.70;;;;;;5014774;28;87113;-43
2023/10/22 03:40:58;;;;;;;;;;;19.90;56.70;;;;;;5015478;28;88830;-43
2023/10/22 03:43:25;;;;;;;;;;;19.90;56.70;;;;;;5012914;28;87030;-42
2023/10/22 03:45:50;;;;;;;;;;;19.90;56.70;;;;;;5014902;28;87410;-41
2023/10/22 03:48:16;;;;;;;;;;;19.90;56.70;;;;;;5013526;28;88214;-42
2023/10/22 03:50:43;;;;;;;;;;;19.90;56.70;;;;;;5011703;28;87258;-43
2023/10/22 03:53:08;;;;;;;;;;;19.90;56.80;;;;;;5013383;28;88072;-43
2023/10/22 03:55:34;;;;;;;;;;;19.90;56.80;;;;;;5012757;28;88102;-42
2023/10/22 03:57:59;;;;;;;;;;;19.90;56.80;;;;;;5014191;28;87397;-43
2023/10/22 04:00:25;;;;;;;;;;;19.90;56.80;;;;;;5011785;28;87699;-43
2023/10/22 04:02:50;;;;;;;;;;;19.90;56.80;;;;;;5016394;28;88176;-44
2023/10/22 04:05:16;;;;;;;;;;;19.90;56.80;;;;;;5011773;28;87775;-42
2023/10/22 04:07:41;;;;;;;;;;;19.90;56.80;;;;;;5014898;28;87915;-43
2023/10/22 04:10:09;;;;;;;;;;;19.90;56.80;;;;;;5012577;28;86398;-45
2023/10/22 04:12:35;;;;;;;;;;;19.80;56.80;;;;;;5013460;28;88399;-44
2023/10/22 04:15:01;;;;;;;;;;;19.80;56.80;;;;;;5010182;28;87995;-45
2023/10/22 04:17:27;;;;;;;;;;;19.90;56.90;;;;;;5013465;28;88140;-43
2023/10/22 04:19:53;;;;;;;;;;;19.80;56.80;;;;;;5012772;28;89834;-42
2023/10/22 04:22:19;;;;;;;;;;;19.80;56.80;;;;;;5011019;28;87931;-42
2023/10/22 04:24:45;;;;;;;;;;;19.80;56.80;;;;;;5017698;28;87264;-43
2023/10/22 04:27:11;;;;;;;;;;;19.90;56.90;;;;;;5012029;28;88160;-43
2023/10/22 04:29:37;;;;;;;;;;;19.80;56.90;;;;;;5012921;28;87207;-43
2023/10/22 04:32:02;;;;;;;;;;;19.80;56.90;;;;;;5013420;28;87405;-43
2023/10/22 04:34:28;;;;;;;;;;;19.80;56.90;;;;;;5014447;28;86411;-44
2023/10/22 04:36:54;;;;;;;;;;;19.80;56.90;;;;;;5011591;28;87138;-42
2023/10/22 04:39:20;;;;;;;;;;;19.80;56.90;;;;;;5014084;28;88854;-42
2023/10/22 04:41:45;;;;;;;;;;;19.80;56.90;;;;;;5010576;28;89483;-44
2023/10/22 04:44:11;;;;;;;;;;;19.80;57.00;;;;;;5010335;28;87448;-43
2023/10/22 04:46:36;;;;;;;;;;;19.80;57.00;;;;;;5015506;28;87380;-42
2023/10/22 04:49:02;;;;;;;;;;;19.70;57.50;;;;;;5013717;28;87199;-42
2023/10/22 04:51:27;;;;;;;;;;;19.70;56.90;;;;;;5012987;28;87479;-42
2023/10/22 04:53:53;;;;;;;;;;;19.80;57.00;;;;;;5011179;28;87936;-42
2023/10/22 04:56:18;;;;;;;;;;;19.70;56.90;;;;;;5010534;28;87193;-45
2023/10/22 04:58:44;;;;;;;;;;;19.80;57.00;;;;;;5013266;28;87330;-42
2023/10/22 05:01:10;;;;;;;;;;;19.70;56.90;;;;;;5010096;28;87949;-42
2023/10/22 05:03:36;;;;;;;;;;;19.70;56.90;;;;;;5011812;28;87144;-42
2023/10/22 05:06:08;;;;;;;;;;;19.80;57.00;;;;;;5007592;28;88046;-42
2023/10/22 05:08:34;;;;;;;;;;;19.70;56.90;;;;;;5012533;28;87997;-41
2023/10/22 05:11:00;;;;;;;;;;;19.70;57.00;;;;;;5010284;28;89187;-44
2023/10/22 05:13:25;;;;;;;;;;;19.70;57.00;;;;;;5013211;28;87963;-43
2023/10/22 05:15:51;;;;;;;;;;;19.70;57.00;;;;;;5007246;28;87607;-43
2023/10/22 05:18:17;;;;;;;;;;;19.70;57.10;;;;;;5008881;28;88042;-44
2023/10/22 05:20:42;;;;;;;;;;;19.70;57.60;;;;;;5012328;28;88015;-43
2023/10/22 05:23:08;;;;;;;;;;;19.70;57.00;;;;;;5011767;28;86416;-42
2023/10/22 05:25:34;;;;;;;;;;;19.70;57.00;;;;;;5008745;28;88176;-42
2023/10/22 05:27:59;;;;;;;;;;;19.70;57.00;;;;;;5005433;28;87143;-43
2023/10/22 05:30:25;;;;;;;;;;;19.70;57.00;;;;;;5012796;28;88021;-43
2023/10/22 05:32:50;;;;;;;;;;;19.70;57.00;;;;;;5011934;28;87187;-42
2023/10/22 05:35:16;;;;;;;;;;;19.70;57.00;;;;;;5007548;28;87418;-42
2023/10/22 05:37:43;;;;;;;;;;;19.70;57.00;;;;;;5007174;28;88894;-43
2023/10/22 05:40:11;;;;;;;;;;;19.70;57.10;;;;;;5012245;28;89728;-44
2023/10/22 05:42:37;;;;;;;;;;;19.70;57.10;;;;;;5008076;28;87300;-43
2023/10/22 05:45:04;;;;;;;;;;;19.70;57.00;;;;;;5013626;28;87373;-42
2023/10/22 05:47:31;;;;;;;;;;;19.70;57.10;;;;;;5014298;28;90418;-43
2023/10/22 05:49:58;;;;;;;;;;;19.70;57.10;;;;;;5015418;28;87441;-42
2023/10/22 05:52:25;;;;;;;;;;;19.70;57.10;;;;;;5008791;28;88115;-42
2023/10/22 05:54:54;;;;;;;;;;;19.70;57.10;;;;;;5009060;28;88664;-42
2023/10/22 05:57:20;;;;;;;;;;;19.60;57.10;;;;;;5009817;28;88409;-42
2023/10/22 05:59:49;;;;;;;;;;;19.70;57.10;;;;;;5011026;28;89463;-45
2023/10/22 06:02:15;;;;;;;;;;;19.60;57.00;;;;;;5007375;28;87181;-43
2023/10/22 06:04:40;;;;;;;;;;;19.60;57.00;;;;;;5007385;28;87328;-43
2023/10/22 06:07:07;;;;;;;;;;;19.70;57.70;;;;;;5010381;28;88462;-41
2023/10/22 06:09:36;;;;;;;;;;;19.60;57.00;;;;;;5013932;28;87361;-44
2023/10/22 06:12:02;;;;;;;;;;;19.70;57.10;;;;;;5008669;28;87472;-43
2023/10/22 06:14:27;;;;;;;;;;;19.60;57.10;;;;;;5007864;28;87278;-42
2023/10/22 06:16:53;;;;;;;;;;;19.60;57.10;;;;;;5014185;28;87793;-43
2023/10/22 06:19:18;;;;;;;;;;;19.60;57.10;;;;;;5012526;28;89152;-43
2023/10/22 06:21:44;;;;;;;;;;;19.60;57.10;;;;;;5011439;28;87515;-45
2023/10/22 06:24:09;;;;;;;;;;;19.60;57.10;;;;;;5013383;28;87374;-42
2023/10/22 06:26:35;;;;;;;;;;;19.60;57.10;;;;;;5013791;28;88177;-42
2023/10/22 06:29:00;;;;;;;;;;;19.60;57.10;;;;;;5016372;28;87223;-44
2023/10/22 06:31:26;;;;;;;;;;;19.60;57.10;;;;;;5013169;28;89092;-42
2023/10/22 06:33:51;;;;;;;;;;;19.60;57.10;;;;;;5015222;28;88302;-43
2023/10/22 06:36:18;;;;;;;;;;;19.60;57.00;;;;;;5014435;28;87436;-44
2023/10/22 06:38:45;;;;;;;;;;;19.60;57.10;;;;;;5010142;28;89198;-44
2023/10/22 06:41:13;;;;;;;;;;;19.60;57.20;;;;;;5011957;28;88523;-42
2023/10/22 06:43:39;;;;;;;;;;;19.60;57.10;;;;;;5012777;28;88708;-42
2023/10/22 06:46:04;;;;;;;;;;;19.60;57.10;;;;;;5014117;28;88104;-44
2023/10/22 06:48:30;;;;;;;;;;;19.60;57.10;;;;;;5010128;28;87156;-44
2023/10/22 06:50:55;;;;;;;;;;;19.60;57.10;;;;;;5012319;28;87553;-42
2023/10/22 06:53:21;;;;;;;;;;;19.60;57.20;;;;;;5014905;28;88032;-43
2023/10/22 06:55:46;;;;;;;;;;;19.60;57.10;;;;;;5016160;28;86954;-42
2023/10/22 06:58:12;;;;;;;;;;;19.60;57.10;;;;;;5011820;28;88856;-44
2023/10/22 07:00:37;;;;;;;;;;;19.60;57.10;;;;;;5017441;28;86490;-42
2023/10/22 07:03:03;;;;;;;;;;;19.60;57.10;;;;;;5013076;28;87042;-46
2023/10/22 07:05:29;;;;;;;;;;;19.60;57.10;;;;;;5016621;28;89194;-44
2023/10/22 07:07:54;;;;;;;;;;;19.60;57.10;;;;;;5014286;28;88090;-41
2023/10/22 07:10:20;;;;;;;;;;;19.60;57.10;;;;;;5009856;28;88361;-41
2023/10/22 07:12:45;;;;;;;;;;;19.60;57.10;;;;;;5013130;28;87323;-42
2023/10/22 07:15:12;;;;;;;;;;;19.60;57.10;;;;;;5014104;27;88175;-43
2023/10/22 07:17:38;;;;;;;;;;;19.60;57.10;;;;;;5014910;28;88948;-42
2023/10/22 07:20:05;;;;;;;;;;;19.60;57.10;;;;;;5013540;28;87128;-43
2023/10/22 07:22:30;;;;;;;;;;;19.70;57.10;;;;;;5013590;28;87405;-41
2023/10/22 07:24:56;;;;;;;;;;;19.60;57.00;;;;;;5010417;28;87329;-44
2023/10/22 07:27:22;;;;;;;;;;;19.70;57.10;;;;;;5008973;28;87564;-43
2023/10/22 07:29:47;;;;;;;;;;;19.60;57.10;;;;;;5012322;28;87382;-43
2023/10/22 07:32:13;;;;;;;;;;;19.70;57.10;;;;;;5012839;28;89012;-46
2023/10/22 07:34:38;;;;;;;;;;;19.70;57.30;;;;;;5011940;28;87257;-43
2023/10/22 07:37:04;;;;;;;;;;;19.60;57.20;;;;;;5010718;28;90382;-42
2023/10/22 07:39:29;;;;;;;;;;;19.60;57.20;;;;;;5016862;28;88187;-43
2023/10/22 07:41:55;;;;;;;;;;;19.60;57.20;;;;;;5014598;28;87363;-43
2023/10/22 07:44:20;;;;;;;;;;;19.60;57.20;;;;;;5011335;28;89114;-42
2023/10/22 07:46:46;;;;;;;;;;;19.60;57.20;;;;;;5010632;28;87939;-42
2023/10/22 07:49:12;;;;;;;;;;;19.70;57.20;;;;;;5012533;28;87494;-43
2023/10/22 07:51:37;;;;;;;;;;;19.70;57.20;;;;;;5013255;28;89593;-42
2023/10/22 07:54:03;;;;;;;;;;;19.70;57.20;;;;;;5010950;28;87764;-42
2023/10/22 07:56:29;;;;;;;;;;;19.70;57.20;;;;;;5009725;28;88029;-44
2023/10/22 07:58:54;;;;;;;;;;;19.70;57.20;;;;;;5015891;28;87866;-43
2023/10/22 08:01:21;;;;;;;;;;;19.70;57.20;;;;;;5014059;28;87682;-42
2023/10/22 08:03:49;;;;;;;;;;;19.70;57.20;;;;;;5010219;28;87998;-42
2023/10/22 08:06:15;;;;;;;;;;;19.70;57.20;;;;;;5009323;28;87188;-43
2023/10/22 08:08:40;;;;;;;;;;;19.70;57.20;;;;;;5011707;28;87216;-43
2023/10/22 08:11:06;;;;;;;;;;;19.70;57.20;;;;;;5015380;28;87707;-44
2023/10/22 08:13:31;;;;;;;;;;;19.70;57.30;;;;;;5010908;28;86364;-41
2023/10/22 08:15:57;;;;;;;;;;;19.70;57.30;;;;;;5011396;28;87031;-41
2023/10/22 08:18:23;;;;;;;;;;;19.70;57.40;;;;;;5013036;28;87693;-43
2023/10/22 08:20:48;;;;;;;;;;;19.70;57.40;;;;;;5013799;28;89500;-43
2023/10/22 08:23:14;;;;;;;;;;;19.70;57.40;;;;;;5007060;28;88564;-43
2023/10/22 08:25:48;;;;;;;;;;;19.70;57.40;;;;;;5010621;28;87006;-43
2023/10/22 08:28:14;;;;;;;;;;;19.70;57.40;;;;;;5014001;28;87397;-43
2023/10/22 08:30:43;;;;;;;;;;;19.70;57.40;;;;;;5010119;28;88172;-42
2023/10/22 08:33:08;;;;;;;;;;;19.70;57.40;;;;;;5009101;28;87207;-42
2023/10/22 08:35:34;;;;;;;;;;;19.70;57.40;;;;;;5010886;28;87384;-42
2023/10/22 08:37:59;;;;;;;;;;;19.70;57.40;;;;;;5010525;28;86980;-42
2023/10/22 08:40:25;;;;;;;;;;;19.70;57.40;;;;;;5009846;28;88371;-44
2023/10/22 08:42:52;;;;;;;;;;;19.70;57.50;;;;;;5011833;28;89676;-44
2023/10/22 08:45:17;;;;;;;;;;;19.70;57.50;;;;;;5011076;28;87999;-42
2023/10/22 08:47:43;;;;;;;;;;;19.70;57.50;;;;;;5013457;28;88545;-44
2023/10/22 08:50:10;;;;;;;;;;;19.70;57.50;;;;;;5008528;28;87315;-45
2023/10/22 08:52:35;;;;;;;;;;;19.70;57.50;;;;;;5006718;28;87204;-42
2023/10/22 08:55:01;;;;;;;;;;;19.70;57.50;;;;;;5013581;28;87345;-44
2023/10/22 08:57:28;;;;;;;;;;;19.70;58.10;;;;;;5009374;28;89500;-42
2023/10/22 08:59:53;;;;;;;;;;;19.70;57.50;;;;;;5009045;28;88097;-43
2023/10/22 09:02:23;;;;;;;;;;;19.70;57.50;;;;;;5010920;28;87311;-41
2023/10/22 09:04:48;;;;;;;;;;;19.70;57.50;;;;;;5014813;28;88326;-42
2023/10/22 09:07:14;;;;;;;;;;;19.70;57.50;;;;;;5009131;28;87427;-43
2023/10/22 09:09:40;;;;;;;;;;;19.70;57.50;;;;;;5006253;28;88964;-45
2023/10/22 09:12:08;;;;;;;;;;;19.80;57.60;;;;;;5011762;28;87108;-46
2023/10/22 09:14:34;;;;;;;;;;;19.80;57.60;;;;;;5012831;28;88817;-43
2023/10/22 09:17:18;;;;;;;;;;;19.80;57.60;;;;;;5009969;28;88066;-42
2023/10/22 09:19:47;;;;;;;;;;;19.80;57.60;;;;;;5008173;28;87133;-42
2023/10/22 09:22:22;;;;;;;;;;;19.80;57.60;;;;;;5012829;28;87372;-43
2023/10/22 09:24:49;;;;;;;;;;;19.80;57.50;;;;;;5009978;28;89432;-42
2023/10/22 09:27:27;;;;;;;;;;;19.80;57.50;;;;;;5012314;28;86587;-43
2023/10/22 09:29:53;;;;;;;;;;;19.80;57.50;;;;;;5009512;28;88249;-43
2023/10/22 09:32:20;;;;;;;;;;;19.80;57.50;;;;;;5011702;28;87205;-45
2023/10/22 09:34:45;;;;;;;;;;;19.80;57.50;;;;;;5009354;28;89283;-45
2023/10/22 09:37:11;;;;;;;;;;;19.80;57.50;;;;;;5009254;28;87738;-42
2023/10/22 09:39:37;;;;;;;;;;;19.80;57.50;;;;;;5012316;28;86982;-42
2023/10/22 09:42:06;;;;;;;;;;;19.80;57.50;;;;;;5010414;28;89039;-43
2023/10/22 09:44:32;;;;;;;;;;;19.90;57.60;;;;;;5006590;28;88802;-42
2023/10/22 09:47:01;;;;;;;;;;;19.90;57.50;;;;;;5009693;28;87312;-42
2023/10/22 09:49:33;;;;;;;;;;;19.90;57.50;;;;;;5013376;28;87387;-42
2023/10/22 09:52:00;;;;;;;;;;;19.90;57.60;;;;;;5014332;28;86572;-44
2023/10/22 09:54:48;;;;;;;;;;;19.90;57.70;;;;;;5007061;28;88466;-44
2023/10/22 09:57:14;;;;;;;;;;;19.90;57.70;;;;;;5015640;28;89251;-42
2023/10/22 09:59:41;;;;;;;;;;;19.90;57.70;;;;;;5013048;28;88137;-41
2023/10/22 10:02:09;;;;;;;;;;;19.90;57.80;;;;;;5014446;28;88334;-42
2023/10/22 10:04:35;;;;;;;;;;;19.90;57.70;;;;;;5010596;28;90114;-42
2023/10/22 10:07:01;;;;;;;;;;;19.90;57.70;;;;;;5015078;28;87039;-42
2023/10/22 10:09:27;;;;;;;;;;;19.90;57.60;;;;;;5016782;28;87383;-43
2023/10/22 10:11:53;;;;;;;;;;;19.90;57.60;;;;;;5010874;28;89492;-43
2023/10/22 10:14:33;;;;;;;;;;;19.90;57.60;;;;;;5013372;28;87343;-44
2023/10/22 10:17:02;;;;;;;;;;;19.90;57.60;;;;;;5015972;28;87245;-42
2023/10/22 10:19:28;;;;;;;;;;;20.00;57.60;;;;;;5016230;28;87221;-43
2023/10/22 10:21:53;;;;;;;;;;;19.90;57.60;;;;;;5042616;27;90478;-43
2023/10/22 10:24:22;;;;;;;;;;;19.90;57.60;;;;;;5011591;28;88874;-42
2023/10/22 10:26:50;;;;;;;;;;;19.90;57.60;;;;;;5013947;28;87134;-43
2023/10/22 10:29:20;;;;;;;;;;;20.00;57.70;;;;;;5011552;28;87853;-42
2023/10/22 10:31:47;;;;;;;;;;;20.00;57.60;;;;;;5018006;28;87937;-42
2023/10/22 10:34:20;;;;;;;;;;;20.00;57.60;;;;;;5012980;28;89256;-42
2023/10/22 10:36:47;;;;;;;;;;;20.00;57.70;;;;;;5014474;28;89563;-42
2023/10/22 10:39:31;;;;;;;;;;;20.00;57.70;;;;;;5010960;28;87693;-41
2023/10/22 10:41:57;;;;;;;;;;;20.00;57.70;;;;;;5009918;28;87127;-42
2023/10/22 10:44:22;;;;;;;;;;;20.00;57.80;;;;;;5013491;28;87122;-42
2023/10/22 10:46:48;;;;;;;;;;;20.10;57.70;;;;;;5015074;28;88916;-42
2023/10/22 10:49:13;;;;;;;;;;;20.00;57.70;;;;;;5011627;28;88095;-43
2023/10/22 10:51:57;;;;;;;;;;;20.00;57.80;;;;;;5010967;28;87062;-42
2023/10/22 10:54:22;;;;;;;;;;;20.10;57.90;;;;;;5018102;28;87029;-43
2023/10/22 10:56:55;;;;;;;;;;;20.10;57.80;;;;;;5012169;28;88484;-42
2023/10/22 10:59:31;;;;;;;;;;;20.10;57.70;;;;;;5007870;28;87278;-41
2023/10/22 11:01:57;;;;;;;;;;;20.10;57.70;;;;;;5014748;28;87894;-43
2023/10/22 11:04:22;;;;;;;;;;;20.20;57.70;;;;;;5014337;28;89319;-43
2023/10/22 11:06:49;;;;;;;;;;;20.10;57.80;;;;;;5010661;28;88248;-43
2023/10/22 11:09:15;;;;;;;;;;;20.10;57.80;;;;;;5007469;28;87149;-43
2023/10/22 11:11:53;;;;;;;;;;;20.10;57.90;;;;;;5013745;28;87983;-44
2023/10/22 11:14:19;;;;;;;;;;;20.10;57.90;;;;;;5012812;28;88131;-42
2023/10/22 11:16:56;;;;;;;;;;;20.20;57.90;;;;;;5014779;28;88360;-43
2023/10/22 11:19:26;;;;;;;;;;;20.20;57.90;;;;;;5010863;28;87256;-42
2023/10/22 11:21:52;;;;;;;;;;;20.20;58.00;;;;;;5012349;28;87009;-45
2023/10/22 11:24:19;;;;;;;;;;;20.20;57.90;;;;;;5008143;28;89695;-44
2023/10/22 11:26:45;;;;;;;;;;;20.20;58.00;;;;;;5008900;28;87624;-42
2023/10/22 11:29:11;;;;;;;;;;;20.20;58.00;;;;;;5011998;28;87328;-42
2023/10/22 11:31:37;;;;;;;;;;;20.20;58.00;;;;;;5013126;28;87133;-44
2023/10/22 11:34:12;;;;;;;;;;;20.20;58.10;;;;;;5006686;28;87189;-45
2023/10/22 11:36:38;;;;;;;;;;;20.20;58.10;;;;;;5007699;28;87418;-43
2023/10/22 11:39:13;;;;;;;;;;;20.30;58.10;;;;;;5015112;28;89171;-45
2023/10/22 11:41:39;;;;;;;;;;;20.30;58.10;;;;;;5013629;28;88545;-42
2023/10/22 11:44:05;;;;;;;;;;;20.30;58.10;;;;;;5012871;28;88612;-43
2023/10/22 11:46:41;;;;;;;;;;;20.30;58.10;;;;;;5006711;28;87333;-44
2023/10/22 11:49:07;;;;;;;;;;;20.30;58.30;;;;;;5012951;28;89304;-43
2023/10/22 11:51:45;;;;;;;;;;;20.30;58.30;;;;;;5012410;28;87986;-42
2023/10/22 11:54:10;;;;;;;;;;;20.30;58.20;;;;;;5008920;28;87981;-42
2023/10/22 11:56:36;;;;;;;;;;;20.30;58.20;;;;;;5011496;28;87502;-44
2023/10/22 11:59:01;;;;;;;;;;;20.30;58.30;;;;;;5012672;28;88116;-42
2023/10/22 12:01:27;;;;;;;;;;;20.30;58.40;;;;;;5018304;28;87129;-42
2023/10/22 12:03:52;;;;;;;;;;;20.40;58.40;;;;;;5002321;28;89153;-43
2023/10/22 12:06:18;;;;;;;;;;;20.40;58.40;;;;;;5009888;28;87169;-43
2023/10/22 12:08:44;;;;;;;;;;;20.40;58.30;;;;;;5014566;28;86981;-42
2023/10/22 12:11:10;;;;;;;;;;;20.30;58.40;;;;;;5010998;28;89487;-42
2023/10/22 12:13:35;;;;;;;;;;;20.40;58.40;;;;;;5010127;28;87875;-42
2023/10/22 12:16:02;;;;;;;;;;;20.40;58.40;;;;;;5010299;28;88726;-43
2023/10/22 12:18:28;;;;;;;;;;;20.40;58.40;;;;;;5011886;28;89399;-43
2023/10/22 12:20:55;;;;;;;;;;;20.40;58.40;;;;;;5015315;28;88402;-42
2023/10/22 12:23:20;;;;;;;;;;;20.40;58.40;;;;;;5009680;28;88410;-43
2023/10/22 12:25:46;;;;;;;;;;;20.40;58.50;;;;;;5010301;28;87275;-43
2023/10/22 12:28:11;;;;;;;;;;;20.40;58.50;;;;;;5013137;28;88024;-42
2023/10/22 12:30:38;;;;;;;;;;;20.40;58.40;;;;;;5007687;28;87995;-44
2023/10/22 12:33:03;;;;;;;;;;;20.50;58.40;;;;;;5009552;28;87865;-43
2023/10/22 12:35:30;;;;;;;;;;;20.50;58.50;;;;;;5011759;28;87574;-44
2023/10/22 12:37:55;;;;;;;;;;;20.50;58.60;;;;;;5009285;28;89911;-42
2023/10/22 12:40:21;;;;;;;;;;;20.40;58.50;;;;;;5007479;28;87326;-43
2023/10/22 12:42:46;;;;;;;;;;;20.40;58.60;;;;;;5012321;28;88295;-42
2023/10/22 12:45:12;;;;;;;;;;;20.50;58.70;;;;;;5013392;28;86449;-43
2023/10/22 12:47:38;;;;;;;;;;;20.50;58.70;;;;;;5010623;28;87876;-43
2023/10/22 12:50:04;;;;;;;;;;;20.50;58.70;;;;;;5011076;28;89112;-44
2023/10/22 12:52:30;;;;;;;;;;;20.50;58.70;;;;;;5005683;28;88062;-46
2023/10/22 12:54:56;;;;;;;;;;;20.50;58.50;;;;;;5012133;28;88362;-44
2023/10/22 12:57:21;;;;;;;;;;;20.50;58.00;;;;;;5008277;28;88079;-45
2023/10/22 12:59:47;;;;;;;;;;;20.50;57.40;;;;;;5005314;28;87123;-42
2023/10/22 13:02:13;;;;;;;;;;;20.60;57.40;;;;;;5013126;28;87555;-44
2023/10/22 13:04:38;;;;;;;;;;;20.60;57.50;;;;;;5014239;28;88000;-48
2023/10/22 13:07:04;;;;;;;;;;;20.60;57.70;;;;;;5007256;28;88268;-42
2023/10/22 13:09:29;;;;;;;;;;;20.70;57.50;;;;;;5011861;28;87270;-42
2023/10/22 13:11:55;;;;;;;;;;;20.70;58.40;;;;;;5010858;28;87218;-42
2023/10/22 13:14:21;;;;;;;;;;;20.70;57.30;;;;;;5011221;28;87134;-42
2023/10/22 13:16:48;;;;;;;;;;;20.70;57.30;;;;;;5009690;28;89491;-44
2023/10/22 13:19:13;;;;;;;;;;;20.70;57.30;;;;;;5009444;28;87145;-45
2023/10/22 13:21:39;;;;;;;;;;;20.80;58.10;;;;;;5012221;28;87281;-46
2023/10/22 13:24:05;;;;;;;;;;;20.80;57.50;;;;;;5007189;28;88263;-50
2023/10/22 13:26:31;;;;;;;;;;;20.80;57.10;;;;;;5013376;28;88882;-47
2023/10/22 13:29:00;;;;;;;;;;;20.90;57.40;;;;;;5009420;28;88095;-48
2023/10/22 13:31:26;;;;;;;;;;;20.90;56.90;;;;;;5006588;28;88623;-58
2023/10/22 13:33:51;;;;;;;;;;;20.90;57.10;;;;;;5005598;28;87659;-58
2023/10/22 13:36:17;;;;;;;;;;;20.90;57.50;;;;;;5008158;28;88253;-47
2023/10/22 13:38:43;;;;;;;;;;;20.90;57.80;;;;;;5007626;28;87541;-55
2023/10/22 13:41:08;;;;;;;;;;;21.00;57.30;;;;;;5010012;28;88034;-56
2023/10/22 13:43:34;;;;;;;;;;;21.00;57.50;;;;;;5005391;28;88321;-56
2023/10/22 13:46:01;;;;;;;;;;;21.10;57.40;;;;;;5006080;28;87304;-60
2023/10/22 13:48:26;;;;;;;;;;;21.10;57.00;;;;;;5015407;28;88937;-51
2023/10/22 13:50:52;;;;;;;;;;;21.10;57.20;;;;;;5007132;28;87182;-56
2023/10/22 13:53:17;;;;;;;;;;;21.20;57.10;;;;;;5005581;28;87487;-61
2023/10/22 13:55:43;;;;;;;;;;;21.20;56.50;;;;;;5002906;28;87942;-59
2023/10/22 13:58:09;;;;;;;;;;;21.20;56.30;;;;;;5010075;28;86918;-61
2023/10/22 14:00:36;;;;;;;;;;;21.10;56.30;;;;;;5008270;28;87699;-60
2023/10/22 14:03:01;;;;;;;;;;;21.20;56.80;;;;;;5012134;28;88172;-58
2023/10/22 14:05:27;;;;;;;;;;;21.10;56.50;;;;;;5006811;28;88109;-56
2023/10/22 14:07:53;;;;;;;;;;;21.10;56.50;;;;;;5014604;28;88323;-61
2023/10/22 14:10:18;;;;;;;;;;;21.20;56.60;;;;;;5009917;28;87264;-60
2023/10/22 14:12:46;;;;;;;;;;;21.20;56.50;;;;;;5010721;28;87233;-59
2023/10/22 14:15:11;;;;;;;;;;;21.20;56.80;;;;;;5008826;28;87204;-59